createdAt,value
2022-10-10T00:01:32.368Z,20.40
2022-10-10T00:04:02.132Z,19.37
2022-10-10T00:06:33.380Z,19.00
2022-10-10T00:09:02.661Z,20.43
2022-10-10T00:11:33.124Z,20.07
2022-10-10T00:14:01.983Z,19.03
2022-10-10T00:16:30.515Z,19.67
2022-10-10T00:18:58.955Z,20.77
2022-10-10T00:21:27.549Z,20.97
2022-10-10T00:23:56.075Z,19.53
2022-10-10T00:26:24.659Z,20.07
2022-10-10T00:28:54.605Z,20.17
2022-10-10T00:31:23.432Z,19.67
2022-10-10T00:33:52.183Z,20.47
2022-10-10T00:36:21.412Z,21.07
2022-10-10T00:38:49.926Z,20.80
2022-10-10T00:41:18.549Z,20.30
2022-10-10T00:46:42.839Z,20.47
2022-10-10T00:49:16.405Z,20.30
2022-10-10T00:51:47.120Z,20.33
2022-10-10T00:54:19.011Z,19.47
2022-10-10T00:56:50.833Z,19.73
2022-10-10T00:59:20.957Z,19.20
2022-10-10T01:01:50.960Z,19.27
2022-10-10T01:04:31.977Z,19.67
2022-10-10T01:07:02.531Z,19.53
2022-10-10T01:09:32.103Z,19.27
2022-10-10T01:12:12.273Z,18.93
2022-10-10T01:14:47.858Z,19.27
2022-10-10T01:17:24.037Z,18.43
2022-10-10T01:20:19.137Z,17.90
2022-10-10T01:23:03.677Z,18.33
2022-10-10T01:25:40.912Z,18.80
2022-10-10T01:28:13.873Z,20.20
2022-10-10T01:30:44.112Z,21.17
2022-10-10T01:33:16.943Z,20.23
2022-10-10T01:35:52.976Z,20.50
2022-10-10T01:38:30.276Z,21.00
2022-10-10T01:41:07.283Z,20.77
2022-10-10T01:43:37.265Z,20.23
2022-10-10T01:46:12.343Z,20.27
2022-10-10T01:48:41.963Z,20.40
2022-10-10T01:51:25.535Z,20.83
2022-10-10T01:54:02.251Z,21.57
2022-10-10T01:56:40.312Z,21.07
2022-10-10T01:59:25.794Z,21.43
2022-10-10T02:01:58.240Z,22.37
2022-10-10T02:04:33.478Z,23.07
2022-10-10T02:07:07.884Z,21.93
2022-10-10T02:09:39.902Z,23.87
2022-10-10T02:12:10.606Z,23.80
2022-10-10T02:14:42.293Z,22.43
2022-10-10T02:17:14.557Z,23.27
2022-10-10T02:19:50.859Z,23.43
2022-10-10T02:22:21.193Z,23.67
2022-10-10T02:24:50.193Z,23.57
2022-10-10T02:27:22.710Z,21.80
2022-10-10T02:29:54.368Z,22.80
2022-10-10T02:32:32.771Z,21.83
2022-10-10T02:35:07.935Z,20.23
2022-10-10T02:37:38.803Z,21.37
2022-10-10T02:40:10.064Z,21.13
2022-10-10T02:42:39.940Z,21.07
2022-10-10T02:45:09.075Z,20.50
2022-10-10T02:47:39.243Z,20.10
2022-10-10T02:50:08.790Z,20.47
2022-10-10T02:52:37.534Z,19.53
2022-10-10T02:55:06.963Z,20.07
2022-10-10T02:57:35.465Z,19.40
2022-10-10T03:00:05.257Z,19.13
2022-10-10T03:02:34.446Z,19.20
2022-10-10T03:05:05.890Z,19.00
2022-10-10T03:07:34.980Z,18.80
2022-10-10T03:10:03.469Z,20.20
2022-10-10T03:12:32.189Z,18.47
2022-10-10T03:15:00.861Z,20.07
2022-10-10T03:17:29.334Z,20.03
2022-10-10T03:19:57.835Z,19.60
2022-10-10T03:22:27.644Z,18.73
2022-10-10T03:24:56.120Z,18.77
2022-10-10T03:27:24.877Z,18.43
2022-10-10T03:29:53.433Z,18.93
2022-10-10T03:32:22.105Z,18.23
2022-10-10T03:34:50.560Z,18.60
2022-10-10T03:37:19.058Z,19.23
2022-10-10T03:39:49.108Z,18.37
2022-10-10T03:42:17.619Z,19.03
2022-10-10T03:44:46.480Z,18.17
2022-10-10T03:47:14.973Z,18.57
2022-10-10T03:49:43.695Z,19.53
2022-10-10T03:52:12.142Z,19.57
2022-10-10T03:54:40.850Z,18.27
2022-10-10T03:57:10.665Z,19.37
2022-10-10T03:59:39.123Z,18.53
2022-10-10T04:02:07.619Z,20.40
2022-10-10T04:04:36.337Z,20.33
2022-10-10T04:07:05.072Z,19.27
2022-10-10T04:09:33.555Z,22.03
2022-10-10T04:12:02.059Z,20.23
2022-10-10T04:14:31.901Z,21.03
2022-10-10T04:17:03.068Z,20.63
2022-10-10T04:19:32.062Z,20.03
2022-10-10T04:22:00.552Z,20.40
2022-10-10T04:24:29.085Z,19.77
2022-10-10T04:26:57.894Z,21.50
2022-10-10T04:29:26.580Z,20.17
2022-10-10T04:31:56.939Z,20.27
2022-10-10T04:34:25.527Z,20.40
2022-10-10T04:36:53.999Z,19.50
2022-10-10T04:39:23.429Z,20.50
2022-10-10T04:41:51.912Z,19.70
2022-10-10T04:44:20.732Z,19.13
2022-10-10T04:46:49.240Z,19.43
2022-10-10T04:49:19.275Z,19.17
2022-10-10T04:51:48.202Z,19.03
2022-10-10T04:54:16.663Z,19.73
2022-10-10T04:56:46.053Z,19.73
2022-10-10T04:59:14.498Z,19.23
2022-10-10T05:01:43.157Z,18.57
2022-10-10T05:04:12.831Z,19.03
2022-10-10T05:06:42.953Z,20.37
2022-10-10T05:09:11.727Z,20.90
2022-10-10T05:11:40.164Z,19.37
2022-10-10T05:14:08.637Z,19.53
2022-10-10T05:16:37.244Z,17.90
2022-10-10T05:19:05.733Z,19.20
2022-10-10T05:21:34.230Z,20.10
2022-10-10T05:24:04.452Z,18.73
2022-10-10T05:26:33.013Z,19.30
2022-10-10T05:29:01.676Z,19.63
2022-10-10T05:31:30.209Z,19.67
2022-10-10T05:33:58.710Z,19.60
2022-10-10T05:36:27.232Z,18.93
2022-10-10T05:38:55.761Z,20.03
2022-10-10T05:41:25.599Z,19.50
2022-10-10T05:43:54.062Z,19.10
2022-10-10T05:46:24.624Z,18.80
2022-10-10T05:48:53.288Z,17.70
2022-10-10T05:51:22.595Z,17.60
2022-10-10T05:53:51.334Z,18.03
2022-10-10T05:56:19.887Z,16.93
2022-10-10T05:58:51.324Z,17.07
2022-10-10T06:01:19.892Z,15.93
2022-10-10T06:03:52.726Z,16.47
2022-10-10T06:06:21.208Z,15.70
2022-10-10T06:08:49.854Z,14.53
2022-10-10T06:11:19.331Z,14.33
2022-10-10T06:13:54.019Z,13.97
2022-10-10T06:16:23.066Z,15.40
2022-10-10T06:18:52.134Z,13.67
2022-10-10T06:21:21.296Z,13.47
2022-10-10T06:23:50.012Z,13.33
2022-10-10T06:26:18.930Z,12.70
2022-10-10T06:28:50.770Z,13.00
2022-10-10T06:31:19.332Z,12.43
2022-10-10T06:33:49.185Z,12.73
2022-10-10T06:36:18.071Z,11.27
2022-10-10T06:38:47.322Z,11.97
2022-10-10T06:41:15.830Z,12.07
2022-10-10T06:43:44.330Z,11.50
2022-10-10T06:46:14.357Z,11.63
2022-10-10T06:48:42.888Z,10.87
2022-10-10T06:51:15.292Z,10.63
2022-10-10T06:53:44.307Z,10.37
2022-10-10T06:56:17.852Z,11.23
2022-10-10T06:58:46.502Z,11.00
2022-10-10T07:01:19.536Z,10.90
2022-10-10T07:03:48.111Z,10.80
2022-10-10T07:06:18.035Z,10.53
2022-10-10T07:08:46.584Z,10.87
2022-10-10T07:11:15.340Z,9.97
2022-10-10T07:13:44.106Z,10.23
2022-10-10T07:16:13.109Z,8.90
2022-10-10T07:18:42.990Z,10.10
2022-10-10T07:21:12.067Z,9.37
2022-10-10T07:23:40.764Z,8.63
2022-10-10T07:26:13.424Z,9.00
2022-10-10T07:28:42.023Z,8.30
2022-10-10T07:31:12.172Z,9.47
2022-10-10T07:33:49.638Z,8.73
2022-10-10T07:36:19.143Z,8.37
2022-10-10T07:38:52.095Z,8.83
2022-10-10T07:41:21.338Z,8.53
2022-10-10T07:43:54.920Z,9.90
2022-10-10T07:46:23.545Z,9.97
2022-10-10T07:48:53.364Z,9.80
2022-10-10T07:51:21.791Z,9.97
2022-10-10T07:53:50.286Z,9.90
2022-10-10T07:56:18.728Z,9.57
2022-10-10T07:58:47.237Z,9.60
2022-10-10T08:01:15.828Z,9.90
2022-10-10T08:03:44.774Z,9.53
2022-10-10T08:06:17.323Z,9.83
2022-10-10T08:08:52.029Z,9.90
2022-10-10T08:11:21.759Z,9.93
2022-10-10T08:13:51.559Z,9.37
2022-10-10T08:16:20.450Z,9.23
2022-10-10T08:18:48.980Z,9.47
2022-10-10T08:21:19.267Z,8.93
2022-10-10T08:23:47.989Z,8.63
2022-10-10T08:26:19.903Z,9.20
2022-10-10T08:28:48.839Z,9.37
2022-10-10T08:31:20.470Z,9.20
2022-10-10T08:33:50.378Z,9.53
2022-10-10T08:36:22.789Z,9.17
2022-10-10T08:38:52.701Z,9.57
2022-10-10T08:41:28.111Z,9.10
2022-10-10T08:44:00.953Z,8.70
2022-10-10T08:46:36.854Z,8.90
2022-10-10T08:49:16.042Z,8.50
2022-10-10T08:51:52.578Z,8.90
2022-10-10T08:54:23.283Z,8.97
2022-10-10T08:56:51.995Z,8.70
2022-10-10T08:59:25.399Z,8.07
2022-10-10T09:02:17.616Z,7.63
2022-10-10T09:04:48.442Z,8.87
2022-10-10T09:07:28.418Z,8.50
2022-10-10T09:10:09.618Z,8.10
2022-10-10T09:12:47.472Z,7.70
2022-10-10T09:15:22.019Z,7.90
2022-10-10T09:18:00.159Z,10.67
2022-10-10T09:20:42.200Z,7.47
2022-10-10T09:23:22.536Z,6.70
2022-10-10T09:25:57.238Z,6.63
2022-10-10T09:28:37.339Z,6.63
2022-10-10T09:31:12.427Z,7.70
2022-10-10T09:33:45.353Z,6.47
2022-10-10T09:36:17.075Z,7.13
2022-10-10T09:38:51.422Z,6.27
2022-10-10T09:41:24.061Z,7.70
2022-10-10T09:43:58.088Z,7.30
2022-10-10T09:46:27.521Z,5.93
2022-10-10T09:48:56.411Z,5.60
2022-10-10T09:51:24.991Z,6.87
2022-10-10T09:53:54.789Z,6.10
2022-10-10T09:56:26.563Z,6.40
2022-10-10T09:58:56.486Z,6.27
2022-10-10T10:01:26.950Z,5.60
2022-10-10T10:04:30.138Z,5.77
2022-10-10T10:07:07.319Z,6.77
2022-10-10T10:09:37.256Z,7.30
2022-10-10T10:12:07.383Z,5.77
2022-10-10T10:14:39.042Z,5.37
2022-10-10T10:17:09.820Z,5.33
2022-10-10T10:19:39.919Z,5.63
2022-10-10T10:22:26.797Z,5.43
2022-10-10T10:24:56.938Z,5.40
2022-10-10T10:27:27.694Z,5.50
2022-10-10T10:29:57.628Z,6.07
2022-10-10T10:32:46.201Z,5.60
2022-10-10T10:35:25.482Z,5.73
2022-10-10T10:38:10.804Z,4.87
2022-10-10T10:40:46.383Z,5.23
2022-10-10T10:43:49.359Z,5.23
2022-10-10T10:46:32.198Z,5.27
2022-10-10T10:49:03.143Z,5.30
2022-10-10T10:51:47.890Z,5.93
2022-10-10T10:54:37.046Z,4.97
2022-10-10T10:57:43.836Z,4.60
2022-10-10T11:00:26.173Z,5.87
2022-10-10T11:03:38.559Z,5.27
2022-10-10T11:06:11.873Z,5.07
2022-10-10T11:09:00.218Z,4.80
2022-10-10T11:11:43.246Z,4.93
2022-10-10T11:14:27.141Z,4.70
2022-10-10T11:17:00.278Z,5.10
2022-10-10T11:19:33.588Z,4.70
2022-10-10T11:22:06.309Z,4.73
2022-10-10T11:24:46.180Z,4.38
2022-10-10T11:27:20.506Z,4.78
2022-10-10T11:30:00.007Z,4.77
2022-10-10T11:32:34.285Z,4.22
2022-10-10T11:35:18.449Z,4.28
2022-10-10T11:37:51.678Z,4.55
2022-10-10T11:40:36.163Z,3.75
2022-10-10T11:43:10.070Z,4.32
2022-10-10T11:45:49.749Z,5.25
2022-10-10T11:48:28.578Z,4.85
2022-10-10T11:51:02.704Z,4.82
2022-10-10T11:53:37.549Z,5.07
2022-10-10T11:56:15.512Z,5.10
2022-10-10T11:58:48.909Z,4.22
2022-10-10T12:01:24.498Z,4.77
2022-10-10T12:03:53.472Z,5.50
2022-10-10T12:06:26.700Z,4.60
2022-10-10T12:09:01.028Z,5.40
2022-10-10T12:11:34.321Z,4.83
2022-10-10T12:14:04.893Z,5.27
2022-10-10T12:16:37.973Z,5.03
2022-10-10T12:19:08.965Z,4.80
2022-10-10T12:21:56.078Z,4.90
2022-10-10T12:24:26.289Z,5.40
2022-10-10T12:27:29.794Z,4.40
2022-10-10T12:30:19.575Z,5.17
2022-10-10T12:32:52.919Z,5.70
2022-10-10T12:35:36.794Z,5.40
2022-10-10T12:38:20.499Z,5.53
2022-10-10T12:41:13.063Z,4.85
2022-10-10T12:43:49.369Z,4.85
2022-10-10T12:46:35.810Z,4.90
2022-10-10T12:49:17.034Z,5.53
2022-10-10T12:51:47.160Z,5.13
2022-10-10T12:54:25.727Z,5.13
2022-10-10T12:57:06.953Z,5.50
2022-10-10T12:59:37.573Z,4.85
2022-10-10T13:02:13.548Z,4.70
2022-10-10T13:04:45.958Z,4.77
2022-10-10T13:07:17.517Z,4.72
2022-10-10T13:09:48.783Z,4.57
2022-10-10T13:12:26.073Z,4.45
2022-10-10T13:14:54.753Z,4.90
2022-10-10T13:17:26.350Z,4.78
2022-10-10T13:19:58.620Z,5.35
2022-10-10T13:22:28.849Z,4.95
2022-10-10T13:24:58.072Z,4.95
2022-10-10T13:27:28.177Z,5.65
2022-10-10T13:29:56.992Z,5.30
2022-10-10T13:32:27.863Z,4.43
2022-10-10T13:35:00.508Z,4.65
2022-10-10T13:37:30.274Z,4.93
2022-10-10T13:39:59.203Z,4.75
2022-10-10T13:42:34.725Z,5.33
2022-10-10T13:45:30.372Z,5.07
2022-10-10T13:48:13.972Z,4.80
2022-10-10T13:51:08.543Z,4.80
2022-10-10T13:53:49.951Z,5.30
2022-10-10T13:56:23.586Z,5.03
2022-10-10T13:58:55.118Z,4.80
2022-10-10T14:01:34.496Z,5.30
2022-10-10T14:04:16.807Z,5.10
2022-10-10T14:06:57.368Z,5.10
2022-10-10T14:09:31.375Z,5.00
2022-10-10T14:12:02.574Z,5.40
2022-10-10T14:14:36.502Z,5.40
2022-10-10T14:17:06.897Z,5.47
2022-10-10T14:19:36.251Z,5.30
2022-10-10T14:22:06.283Z,5.10
2022-10-10T14:24:35.157Z,5.47
2022-10-10T14:27:16.042Z,5.88
2022-10-10T14:29:44.621Z,5.97
2022-10-10T14:32:14.378Z,6.18
2022-10-10T14:34:43.222Z,6.65
2022-10-10T14:37:19.552Z,6.82
2022-10-10T14:39:48.820Z,7.47
2022-10-10T14:42:19.256Z,7.70
2022-10-10T14:44:47.733Z,7.40
2022-10-10T14:47:18.088Z,7.35
2022-10-10T14:49:47.142Z,7.30
2022-10-10T14:52:17.240Z,6.50
2022-10-10T14:54:45.780Z,5.85
2022-10-10T14:57:15.187Z,6.30
2022-10-10T14:59:46.079Z,5.53
2022-10-10T15:02:23.119Z,6.32
2022-10-10T15:04:52.209Z,5.82
2022-10-10T15:07:22.036Z,5.57
2022-10-10T15:10:26.067Z,6.43
2022-10-10T15:12:41.936Z,6.87
2022-10-10T15:15:12.780Z,5.55
2022-10-10T15:17:41.510Z,5.85
2022-10-10T15:20:12.463Z,6.47
2022-10-10T15:22:42.929Z,6.05
2022-10-10T15:25:11.799Z,5.97
2022-10-10T15:27:40.583Z,6.60
2022-10-10T15:30:10.185Z,5.68
2022-10-10T15:32:40.658Z,5.82
2022-10-10T15:35:12.849Z,6.00
2022-10-10T15:37:43.347Z,6.15
2022-10-10T15:40:14.067Z,8.00
2022-10-10T15:42:42.528Z,9.47
2022-10-10T15:45:12.237Z,9.68
2022-10-10T15:47:46.474Z,8.82
2022-10-10T15:50:15.773Z,8.68
2022-10-10T15:52:47.460Z,8.43
2022-10-10T15:55:15.988Z,8.35
2022-10-10T15:57:44.542Z,8.13
2022-10-10T16:00:14.607Z,7.50
2022-10-10T16:02:43.299Z,7.77
2022-10-10T16:05:11.954Z,13.03
2022-10-10T16:07:46.972Z,14.43
2022-10-10T16:10:18.161Z,20.13
2022-10-10T16:12:46.649Z,22.87
2022-10-10T16:15:15.222Z,23.60
2022-10-10T16:17:43.741Z,30.17
2022-10-10T16:20:13.005Z,33.17
2022-10-10T16:22:41.510Z,27.47
2022-10-10T16:25:21.854Z,18.43
2022-10-10T16:27:53.021Z,11.03
2022-10-10T16:30:22.001Z,10.60
2022-10-10T16:32:51.148Z,16.10
2022-10-10T16:35:19.846Z,19.53
2022-10-10T16:37:48.650Z,20.97
2022-10-10T16:40:17.468Z,24.93
2022-10-10T16:42:45.920Z,17.90
2022-10-10T16:45:15.888Z,12.67
2022-10-10T16:47:44.422Z,8.77
2022-10-10T16:50:13.329Z,8.60
2022-10-10T16:52:41.907Z,8.83
2022-10-10T16:55:11.351Z,9.00
2022-10-10T16:57:40.953Z,10.70
2022-10-10T17:00:11.060Z,14.63
2022-10-10T17:02:42.331Z,10.43
2022-10-10T17:05:11.305Z,10.27
2022-10-10T17:07:39.935Z,10.23
2022-10-10T17:10:09.438Z,10.77
2022-10-10T17:12:37.975Z,12.07
2022-10-10T17:15:07.756Z,15.87
2022-10-10T17:17:37.827Z,16.87
2022-10-10T17:20:09.268Z,12.37
2022-10-10T17:22:37.930Z,11.53
2022-10-10T17:25:07.430Z,11.13
2022-10-10T17:27:36.097Z,11.93
2022-10-10T17:30:06.125Z,10.93
2022-10-10T17:32:34.690Z,10.47
2022-10-10T17:35:03.215Z,11.97
2022-10-10T17:37:33.115Z,11.33
2022-10-10T17:40:02.187Z,13.43
2022-10-10T17:42:31.045Z,13.30
2022-10-10T17:45:00.224Z,14.23
2022-10-10T17:47:29.368Z,15.37
2022-10-10T17:49:58.103Z,17.27
2022-10-10T17:52:27.151Z,18.13
2022-10-10T17:54:57.244Z,18.77
2022-10-10T17:57:25.999Z,18.20
2022-10-10T17:59:54.704Z,19.40
2022-10-10T18:02:23.367Z,19.13
2022-10-10T18:04:52.103Z,19.87
2022-10-10T18:07:20.766Z,19.37
2022-10-10T18:09:52.132Z,18.60
2022-10-10T18:12:22.083Z,17.13
2022-10-10T18:14:50.821Z,16.80
2022-10-10T18:17:19.573Z,16.23
2022-10-10T18:19:48.448Z,15.83
2022-10-10T18:22:16.994Z,16.57
2022-10-10T18:24:45.456Z,15.23
2022-10-10T18:27:14.084Z,15.20
2022-10-10T18:29:43.879Z,16.13
2022-10-10T18:32:12.435Z,16.60
2022-10-10T18:34:41.016Z,16.87
2022-10-10T18:37:10.195Z,16.57
2022-10-10T18:39:40.286Z,15.67
2022-10-10T18:42:09.120Z,17.27
2022-10-10T18:44:37.644Z,17.10
2022-10-10T18:47:07.693Z,17.43
2022-10-10T18:49:36.340Z,17.13
2022-10-10T18:52:05.137Z,16.27
2022-10-10T18:54:35.541Z,17.90
2022-10-10T18:57:04.299Z,16.57
2022-10-10T18:59:33.355Z,15.47
2022-10-10T19:02:02.053Z,16.43
2022-10-10T19:04:32.047Z,15.73
2022-10-10T19:07:02.137Z,16.87
2022-10-10T19:09:30.893Z,17.43
2022-10-10T19:11:59.593Z,18.83
2022-10-10T19:14:28.329Z,18.33
2022-10-10T19:16:56.880Z,17.80
2022-10-10T19:19:25.390Z,17.20
2022-10-10T19:21:55.606Z,17.77
2022-10-10T19:24:24.263Z,17.90
2022-10-10T19:26:56.655Z,20.83
2022-10-10T19:29:26.287Z,20.10
2022-10-10T19:31:54.969Z,19.33
2022-10-10T19:34:23.984Z,19.00
2022-10-10T19:36:53.512Z,18.80
2022-10-10T19:39:23.372Z,18.90
2022-10-10T19:41:51.899Z,19.30
2022-10-10T19:44:20.667Z,18.57
2022-10-10T19:46:49.355Z,19.63
2022-10-10T19:49:17.895Z,19.53
2022-10-10T19:51:46.336Z,20.20
2022-10-10T19:54:14.878Z,18.67
2022-10-10T19:56:44.854Z,19.10
2022-10-10T19:59:13.477Z,19.00
2022-10-10T20:01:41.974Z,19.73
2022-10-10T20:04:10.678Z,19.90
2022-10-10T20:06:41.290Z,19.47
2022-10-10T20:09:10.983Z,19.73
2022-10-10T20:11:40.096Z,20.53
2022-10-10T20:14:10.778Z,18.97
2022-10-10T20:16:39.645Z,18.57
2022-10-10T20:19:08.594Z,19.30
2022-10-10T20:21:37.289Z,18.17
2022-10-10T20:24:09.977Z,18.73
2022-10-10T20:26:38.517Z,18.67
2022-10-10T20:29:09.295Z,18.17
2022-10-10T20:31:38.504Z,18.67
2022-10-10T20:34:07.971Z,19.13
2022-10-10T20:36:37.242Z,17.60
2022-10-10T20:39:08.991Z,18.23
2022-10-10T20:41:39.678Z,17.60
2022-10-10T20:44:12.260Z,18.17
2022-10-10T20:46:42.710Z,19.43
2022-10-10T20:49:15.702Z,19.87
2022-10-10T20:51:48.591Z,17.73
2022-10-10T20:54:18.983Z,19.83
2022-10-10T20:56:49.176Z,19.00
2022-10-10T20:59:20.417Z,19.40
2022-10-10T21:01:49.050Z,18.60
2022-10-10T21:04:17.694Z,19.90
2022-10-10T21:06:46.382Z,18.40
2022-10-10T21:09:16.635Z,19.43
2022-10-10T21:11:48.723Z,19.33
2022-10-10T21:14:21.047Z,16.97
2022-10-10T21:16:50.576Z,17.40
2022-10-10T21:19:19.251Z,16.93
2022-10-10T21:21:48.299Z,17.83
2022-10-10T21:24:17.072Z,17.23
2022-10-10T21:26:49.043Z,17.27
2022-10-10T21:29:18.020Z,16.10
2022-10-10T21:31:48.090Z,15.87
2022-10-10T21:34:19.001Z,17.30
2022-10-10T21:36:48.244Z,16.93
2022-10-10T21:39:16.814Z,16.90
2022-10-10T21:41:45.323Z,18.43
2022-10-10T21:44:15.842Z,18.90
2022-10-10T21:46:44.674Z,20.33
2022-10-10T21:49:14.805Z,19.03
2022-10-10T21:51:46.582Z,20.13
2022-10-10T21:54:15.878Z,20.50
2022-10-10T21:56:44.422Z,21.40
2022-10-10T21:59:13.289Z,20.80
2022-10-10T22:01:42.656Z,20.07
2022-10-10T22:04:11.589Z,19.67
2022-10-10T22:06:41.596Z,18.67
2022-10-10T22:09:10.186Z,18.87
2022-10-10T22:11:38.674Z,20.23
2022-10-10T22:14:07.282Z,18.70
2022-10-10T22:16:36.620Z,19.20
2022-10-10T22:19:05.526Z,18.67
2022-10-10T22:21:35.154Z,19.10
2022-10-10T22:24:07.909Z,18.13
2022-10-10T22:26:37.177Z,18.13
2022-10-10T22:29:05.765Z,18.27
2022-10-10T22:31:37.492Z,18.43
2022-10-10T22:34:06.744Z,18.97
2022-10-10T22:36:36.106Z,20.57
2022-10-10T22:39:07.267Z,19.70
2022-10-10T22:41:36.011Z,19.97
2022-10-10T22:44:05.168Z,22.60
2022-10-10T22:46:34.339Z,23.10
2022-10-10T22:49:02.860Z,25.60
2022-10-10T22:51:31.570Z,30.57
2022-10-10T22:54:00.156Z,32.57
2022-10-10T22:56:30.048Z,30.83
2022-10-10T22:58:58.576Z,32.20
2022-10-10T23:01:27.608Z,27.53
2022-10-10T23:03:58.334Z,26.07
2022-10-10T23:06:28.626Z,24.43
2022-10-10T23:08:58.186Z,20.03
2022-10-10T23:11:26.682Z,20.73
2022-10-10T23:13:56.771Z,22.07
2022-10-10T23:16:25.394Z,22.17
2022-10-10T23:18:53.886Z,22.20
2022-10-10T23:21:22.513Z,22.23
2022-10-10T23:23:51.143Z,22.97
2022-10-10T23:26:19.767Z,20.03
2022-10-10T23:28:50.674Z,21.03
2022-10-10T23:31:20.834Z,19.37
2022-10-10T23:33:49.397Z,18.47
2022-10-10T23:36:18.107Z,17.80
2022-10-10T23:38:46.660Z,17.67
2022-10-10T23:41:15.442Z,17.03
2022-10-10T23:43:44.180Z,17.20
2022-10-10T23:46:13.064Z,18.27
2022-10-10T23:48:43.587Z,16.00
2022-10-10T23:51:12.999Z,16.17
2022-10-10T23:53:41.894Z,14.90
2022-10-10T23:56:10.714Z,16.00
2022-10-10T23:58:39.252Z,14.43
